sensor_id;sensor_type;location;lat;lon;timestamp;P1;durP1;ratioP1;P2;durP2;ratioP2
27839;SDS011;15207;42.182;24.308;2023-07-31T00:02:22;1.70;;;1.10;;
27839;SDS011;15207;42.182;24.308;2023-07-31T00:07:14;3.10;;;1.30;;
27839;SDS011;15207;42.182;24.308;2023-07-31T00:12:05;3.30;;;1.40;;
27839;SDS011;15207;42.182;24.308;2023-07-31T00:14:33;5.50;;;1.60;;
27839;SDS011;15207;42.182;24.308;2023-07-31T00:16:59;3.20;;;1.35;;
27839;SDS011;15207;42.182;24.308;2023-07-31T00:19:26;2.58;;;1.40;;
27839;SDS011;15207;42.182;24.308;2023-07-31T00:21:52;1.70;;;1.20;;
27839;SDS011;15207;42.182;24.308;2023-07-31T00:24:18;5.00;;;1.60;;
27839;SDS011;15207;42.182;24.308;2023-07-31T00:26:44;4.10;;;1.50;;
27839;SDS011;15207;42.182;24.308;2023-07-31T00:34:01;5.80;;;1.70;;
27839;SDS011;15207;42.182;24.308;2023-07-31T00:36:27;2.90;;;1.80;;
27839;SDS011;15207;42.182;24.308;2023-07-31T00:38:52;5.30;;;2.00;;
27839;SDS011;15207;42.182;24.308;2023-07-31T00:41:19;4.60;;;1.60;;
27839;SDS011;15207;42.182;24.308;2023-07-31T00:43:45;2.65;;;1.75;;
27839;SDS011;15207;42.182;24.308;2023-07-31T00:46:12;1.90;;;1.50;;
27839;SDS011;15207;42.182;24.308;2023-07-31T00:48:38;2.40;;;1.50;;
27839;SDS011;15207;42.182;24.308;2023-07-31T00:53:31;3.15;;;1.80;;
27839;SDS011;15207;42.182;24.308;2023-07-31T00:58:22;4.80;;;2.40;;
27839;SDS011;15207;42.182;24.308;2023-07-31T01:00:48;3.00;;;2.10;;
27839;SDS011;15207;42.182;24.308;2023-07-31T01:03:15;2.97;;;2.10;;
27839;SDS011;15207;42.182;24.308;2023-07-31T01:11:00;5.65;;;2.35;;
27839;SDS011;15207;42.182;24.308;2023-07-31T01:13:40;6.40;;;1.85;;
27839;SDS011;15207;42.182;24.308;2023-07-31T01:16:07;3.30;;;2.30;;
27839;SDS011;15207;42.182;24.308;2023-07-31T01:18:32;4.00;;;2.40;;
27839;SDS011;15207;42.182;24.308;2023-07-31T01:21:03;3.50;;;2.50;;
27839;SDS011;15207;42.182;24.308;2023-07-31T01:26:21;10.15;;;2.50;;
27839;SDS011;15207;42.182;24.308;2023-07-31T01:33:54;5.30;;;2.60;;
27839;SDS011;15207;42.182;24.308;2023-07-31T01:36:25;3.95;;;2.45;;
27839;SDS011;15207;42.182;24.308;2023-07-31T01:38:52;6.75;;;3.10;;
27839;SDS011;15207;42.182;24.308;2023-07-31T01:41:18;3.25;;;2.65;;
27839;SDS011;15207;42.182;24.308;2023-07-31T01:43:44;4.45;;;2.75;;
27839;SDS011;15207;42.182;24.308;2023-07-31T01:46:11;3.30;;;2.40;;
27839;SDS011;15207;42.182;24.308;2023-07-31T01:53:28;4.25;;;2.55;;
27839;SDS011;15207;42.182;24.308;2023-07-31T01:55:55;4.00;;;2.80;;
27839;SDS011;15207;42.182;24.308;2023-07-31T01:58:22;4.40;;;2.20;;
27839;SDS011;15207;42.182;24.308;2023-07-31T02:00:47;4.50;;;2.30;;
27839;SDS011;15207;42.182;24.308;2023-07-31T02:03:13;6.00;;;2.40;;
27839;SDS011;15207;42.182;24.308;2023-07-31T02:05:46;3.45;;;2.60;;
27839;SDS011;15207;42.182;24.308;2023-07-31T02:08:13;3.40;;;2.40;;
27839;SDS011;15207;42.182;24.308;2023-07-31T02:10:39;3.80;;;2.30;;
27839;SDS011;15207;42.182;24.308;2023-07-31T02:13:04;6.50;;;2.80;;
27839;SDS011;15207;42.182;24.308;2023-07-31T02:15:31;3.60;;;2.50;;
27839;SDS011;15207;42.182;24.308;2023-07-31T02:17:57;4.10;;;2.10;;
27839;SDS011;15207;42.182;24.308;2023-07-31T02:22:48;3.60;;;2.45;;
27839;SDS011;15207;42.182;24.308;2023-07-31T02:25:14;5.30;;;2.00;;
27839;SDS011;15207;42.182;24.308;2023-07-31T02:27:40;3.10;;;2.20;;
27839;SDS011;15207;42.182;24.308;2023-07-31T02:30:06;4.20;;;2.40;;
27839;SDS011;15207;42.182;24.308;2023-07-31T02:32:32;6.95;;;2.35;;
27839;SDS011;15207;42.182;24.308;2023-07-31T02:34:57;5.20;;;2.80;;
27839;SDS011;15207;42.182;24.308;2023-07-31T02:37:24;4.70;;;2.60;;
27839;SDS011;15207;42.182;24.308;2023-07-31T02:39:51;4.40;;;2.80;;
27839;SDS011;15207;42.182;24.308;2023-07-31T02:42:18;6.40;;;2.80;;
27839;SDS011;15207;42.182;24.308;2023-07-31T02:44:44;5.90;;;2.33;;
27839;SDS011;15207;42.182;24.308;2023-07-31T02:47:12;3.90;;;2.70;;
27839;SDS011;15207;42.182;24.308;2023-07-31T02:49:38;2.90;;;2.30;;
27839;SDS011;15207;42.182;24.308;2023-07-31T02:52:03;3.28;;;2.50;;
27839;SDS011;15207;42.182;24.308;2023-07-31T02:54:29;3.65;;;2.60;;
27839;SDS011;15207;42.182;24.308;2023-07-31T02:56:55;4.10;;;2.90;;
27839;SDS011;15207;42.182;24.308;2023-07-31T02:59:20;3.65;;;2.45;;
27839;SDS011;15207;42.182;24.308;2023-07-31T03:01:46;5.80;;;2.70;;
27839;SDS011;15207;42.182;24.308;2023-07-31T03:04:12;5.60;;;2.80;;
27839;SDS011;15207;42.182;24.308;2023-07-31T03:06:39;5.40;;;2.70;;
27839;SDS011;15207;42.182;24.308;2023-07-31T03:09:04;5.30;;;2.50;;
27839;SDS011;15207;42.182;24.308;2023-07-31T03:11:30;4.15;;;2.70;;
27839;SDS011;15207;42.182;24.308;2023-07-31T03:16:21;6.95;;;3.35;;
27839;SDS011;15207;42.182;24.308;2023-07-31T03:18:47;6.20;;;3.20;;
27839;SDS011;15207;42.182;24.308;2023-07-31T03:23:39;5.70;;;2.70;;
27839;SDS011;15207;42.182;24.308;2023-07-31T03:28:34;3.25;;;2.20;;
27839;SDS011;15207;42.182;24.308;2023-07-31T03:31:00;4.70;;;3.10;;
27839;SDS011;15207;42.182;24.308;2023-07-31T03:33:27;3.50;;;2.90;;
27839;SDS011;15207;42.182;24.308;2023-07-31T03:38:19;4.90;;;2.95;;
27839;SDS011;15207;42.182;24.308;2023-07-31T03:40:45;4.70;;;2.80;;
27839;SDS011;15207;42.182;24.308;2023-07-31T03:48:03;6.10;;;2.90;;
27839;SDS011;15207;42.182;24.308;2023-07-31T03:52:55;5.10;;;3.00;;
27839;SDS011;15207;42.182;24.308;2023-07-31T03:55:22;4.75;;;3.25;;
27839;SDS011;15207;42.182;24.308;2023-07-31T03:57:48;6.10;;;3.70;;
27839;SDS011;15207;42.182;24.308;2023-07-31T04:00:13;7.55;;;3.40;;
27839;SDS011;15207;42.182;24.308;2023-07-31T04:02:40;5.40;;;2.90;;
27839;SDS011;15207;42.182;24.308;2023-07-31T04:07:31;5.20;;;3.30;;
27839;SDS011;15207;42.182;24.308;2023-07-31T04:12:23;4.55;;;3.30;;
27839;SDS011;15207;42.182;24.308;2023-07-31T04:14:49;4.95;;;2.95;;
27839;SDS011;15207;42.182;24.308;2023-07-31T04:17:15;5.20;;;3.10;;
27839;SDS011;15207;42.182;24.308;2023-07-31T04:24:34;5.00;;;3.50;;
27839;SDS011;15207;42.182;24.308;2023-07-31T04:27:02;6.05;;;3.30;;
27839;SDS011;15207;42.182;24.308;2023-07-31T04:29:33;6.10;;;3.30;;
27839;SDS011;15207;42.182;24.308;2023-07-31T04:32:05;6.00;;;3.60;;
27839;SDS011;15207;42.182;24.308;2023-07-31T04:34:32;4.80;;;3.50;;
27839;SDS011;15207;42.182;24.308;2023-07-31T04:36:58;5.10;;;3.25;;
27839;SDS011;15207;42.182;24.308;2023-07-31T04:39:24;9.10;;;3.80;;
27839;SDS011;15207;42.182;24.308;2023-07-31T04:41:50;5.50;;;3.80;;
27839;SDS011;15207;42.182;24.308;2023-07-31T04:46:41;31.30;;;6.20;;
27839;SDS011;15207;42.182;24.308;2023-07-31T04:49:07;5.90;;;4.00;;
27839;SDS011;15207;42.182;24.308;2023-07-31T04:51:32;26.60;;;5.65;;
27839;SDS011;15207;42.182;24.308;2023-07-31T04:53:58;6.80;;;4.20;;
27839;SDS011;15207;42.182;24.308;2023-07-31T04:56:24;7.50;;;4.60;;
27839;SDS011;15207;42.182;24.308;2023-07-31T04:58:51;6.40;;;4.10;;
27839;SDS011;15207;42.182;24.308;2023-07-31T05:01:18;6.50;;;4.10;;
27839;SDS011;15207;42.182;24.308;2023-07-31T05:03:44;5.70;;;4.00;;
27839;SDS011;15207;42.182;24.308;2023-07-31T05:06:10;6.90;;;3.90;;
27839;SDS011;15207;42.182;24.308;2023-07-31T05:08:39;7.75;;;4.00;;
27839;SDS011;15207;42.182;24.308;2023-07-31T05:11:05;95.80;;;11.70;;
27839;SDS011;15207;42.182;24.308;2023-07-31T05:13:32;7.00;;;3.80;;
27839;SDS011;15207;42.182;24.308;2023-07-31T05:15:58;5.70;;;3.70;;
27839;SDS011;15207;42.182;24.308;2023-07-31T05:18:25;5.10;;;3.70;;
27839;SDS011;15207;42.182;24.308;2023-07-31T05:20:51;4.95;;;3.60;;
27839;SDS011;15207;42.182;24.308;2023-07-31T05:23:18;5.75;;;4.10;;
27839;SDS011;15207;42.182;24.308;2023-07-31T05:25:45;6.15;;;3.85;;
27839;SDS011;15207;42.182;24.308;2023-07-31T05:28:12;5.85;;;3.95;;
27839;SDS011;15207;42.182;24.308;2023-07-31T05:30:38;5.18;;;3.58;;
27839;SDS011;15207;42.182;24.308;2023-07-31T05:33:04;7.10;;;4.50;;
27839;SDS011;15207;42.182;24.308;2023-07-31T05:35:30;8.90;;;4.55;;
27839;SDS011;15207;42.182;24.308;2023-07-31T05:37:59;9.40;;;5.05;;
27839;SDS011;15207;42.182;24.308;2023-07-31T05:45:17;12.90;;;5.80;;
27839;SDS011;15207;42.182;24.308;2023-07-31T05:47:44;12.87;;;6.60;;
27839;SDS011;15207;42.182;24.308;2023-07-31T05:50:10;8.65;;;5.95;;
27839;SDS011;15207;42.182;24.308;2023-07-31T05:55:07;9.20;;;6.60;;
27839;SDS011;15207;42.182;24.308;2023-07-31T05:57:33;8.10;;;5.80;;
27839;SDS011;15207;42.182;24.308;2023-07-31T05:59:59;7.65;;;6.10;;
27839;SDS011;15207;42.182;24.308;2023-07-31T06:02:25;10.10;;;7.10;;
27839;SDS011;15207;42.182;24.308;2023-07-31T06:04:51;12.70;;;6.90;;
27839;SDS011;15207;42.182;24.308;2023-07-31T06:07:17;10.00;;;7.00;;
27839;SDS011;15207;42.182;24.308;2023-07-31T06:09:44;10.50;;;6.80;;
27839;SDS011;15207;42.182;24.308;2023-07-31T06:12:10;9.30;;;6.60;;
27839;SDS011;15207;42.182;24.308;2023-07-31T06:14:36;8.90;;;5.70;;
27839;SDS011;15207;42.182;24.308;2023-07-31T06:17:05;12.50;;;6.80;;
27839;SDS011;15207;42.182;24.308;2023-07-31T06:19:31;12.15;;;7.35;;
27839;SDS011;15207;42.182;24.308;2023-07-31T06:21:58;9.80;;;6.80;;
27839;SDS011;15207;42.182;24.308;2023-07-31T06:24:23;10.50;;;7.60;;
27839;SDS011;15207;42.182;24.308;2023-07-31T06:31:41;11.45;;;7.75;;
27839;SDS011;15207;42.182;24.308;2023-07-31T06:34:07;10.80;;;8.30;;
27839;SDS011;15207;42.182;24.308;2023-07-31T06:38:59;13.20;;;9.00;;
27839;SDS011;15207;42.182;24.308;2023-07-31T06:41:24;16.60;;;9.40;;
27839;SDS011;15207;42.182;24.308;2023-07-31T06:43:51;14.30;;;9.80;;
27839;SDS011;15207;42.182;24.308;2023-07-31T06:46:19;14.10;;;10.00;;
27839;SDS011;15207;42.182;24.308;2023-07-31T06:48:48;16.10;;;11.20;;
27839;SDS011;15207;42.182;24.308;2023-07-31T06:51:14;16.20;;;11.10;;
27839;SDS011;15207;42.182;24.308;2023-07-31T06:56:06;17.30;;;11.50;;
27839;SDS011;15207;42.182;24.308;2023-07-31T06:58:32;15.10;;;11.30;;
27839;SDS011;15207;42.182;24.308;2023-07-31T07:01:00;21.90;;;13.10;;
27839;SDS011;15207;42.182;24.308;2023-07-31T07:03:26;18.05;;;11.90;;
27839;SDS011;15207;42.182;24.308;2023-07-31T07:05:53;17.70;;;12.30;;
27839;SDS011;15207;42.182;24.308;2023-07-31T07:08:19;18.45;;;11.75;;
27839;SDS011;15207;42.182;24.308;2023-07-31T07:10:44;16.90;;;12.00;;
27839;SDS011;15207;42.182;24.308;2023-07-31T07:13:12;18.50;;;11.30;;
27839;SDS011;15207;42.182;24.308;2023-07-31T07:18:06;16.50;;;11.90;;
27839;SDS011;15207;42.182;24.308;2023-07-31T07:20:32;16.40;;;10.90;;
27839;SDS011;15207;42.182;24.308;2023-07-31T07:22:58;18.20;;;12.00;;
27839;SDS011;15207;42.182;24.308;2023-07-31T07:25:23;17.50;;;12.00;;
27839;SDS011;15207;42.182;24.308;2023-07-31T07:27:50;15.67;;;11.70;;
27839;SDS011;15207;42.182;24.308;2023-07-31T07:30:17;19.10;;;11.90;;
27839;SDS011;15207;42.182;24.308;2023-07-31T07:32:45;20.55;;;11.70;;
27839;SDS011;15207;42.182;24.308;2023-07-31T07:35:11;16.20;;;10.60;;
27839;SDS011;15207;42.182;24.308;2023-07-31T07:37:37;13.50;;;10.00;;
27839;SDS011;15207;42.182;24.308;2023-07-31T07:42:29;16.70;;;10.40;;
27839;SDS011;15207;42.182;24.308;2023-07-31T07:44:55;18.30;;;9.70;;
27839;SDS011;15207;42.182;24.308;2023-07-31T07:49:46;13.40;;;9.70;;
27839;SDS011;15207;42.182;24.308;2023-07-31T07:52:11;15.00;;;9.70;;
27839;SDS011;15207;42.182;24.308;2023-07-31T07:54:38;11.90;;;8.70;;
27839;SDS011;15207;42.182;24.308;2023-07-31T07:57:03;15.25;;;9.55;;
27839;SDS011;15207;42.182;24.308;2023-07-31T07:59:30;14.40;;;8.60;;
27839;SDS011;15207;42.182;24.308;2023-07-31T08:01:56;12.15;;;8.80;;
27839;SDS011;15207;42.182;24.308;2023-07-31T08:04:23;12.50;;;8.15;;
27839;SDS011;15207;42.182;24.308;2023-07-31T08:06:51;10.85;;;8.55;;
27839;SDS011;15207;42.182;24.308;2023-07-31T08:09:16;10.60;;;7.90;;
27839;SDS011;15207;42.182;24.308;2023-07-31T08:11:42;12.15;;;8.05;;
27839;SDS011;15207;42.182;24.308;2023-07-31T08:14:08;9.80;;;7.30;;
27839;SDS011;15207;42.182;24.308;2023-07-31T08:16:35;9.95;;;7.20;;
27839;SDS011;15207;42.182;24.308;2023-07-31T08:19:01;8.10;;;6.15;;
27839;SDS011;15207;42.182;24.308;2023-07-31T08:21:26;9.80;;;6.80;;
27839;SDS011;15207;42.182;24.308;2023-07-31T08:23:52;8.25;;;6.45;;
27839;SDS011;15207;42.182;24.308;2023-07-31T08:26:18;7.40;;;6.30;;
27839;SDS011;15207;42.182;24.308;2023-07-31T08:28:44;10.05;;;6.70;;
27839;SDS011;15207;42.182;24.308;2023-07-31T08:31:12;8.40;;;6.05;;
27839;SDS011;15207;42.182;24.308;2023-07-31T08:33:39;6.15;;;5.00;;
27839;SDS011;15207;42.182;24.308;2023-07-31T08:36:06;7.30;;;5.80;;
27839;SDS011;15207;42.182;24.308;2023-07-31T08:38:31;9.70;;;5.70;;
27839;SDS011;15207;42.182;24.308;2023-07-31T08:40:57;7.15;;;5.65;;
27839;SDS011;15207;42.182;24.308;2023-07-31T08:43:25;7.70;;;5.30;;
27839;SDS011;15207;42.182;24.308;2023-07-31T08:45:54;5.80;;;4.80;;
27839;SDS011;15207;42.182;24.308;2023-07-31T08:48:23;6.40;;;4.65;;
27839;SDS011;15207;42.182;24.308;2023-07-31T08:50:51;6.50;;;5.15;;
27839;SDS011;15207;42.182;24.308;2023-07-31T08:53:18;7.60;;;5.30;;
27839;SDS011;15207;42.182;24.308;2023-07-31T08:55:44;6.40;;;4.60;;
27839;SDS011;15207;42.182;24.308;2023-07-31T08:58:10;6.80;;;4.35;;
27839;SDS011;15207;42.182;24.308;2023-07-31T09:00:38;4.90;;;4.25;;
27839;SDS011;15207;42.182;24.308;2023-07-31T09:03:09;6.50;;;4.30;;
27839;SDS011;15207;42.182;24.308;2023-07-31T09:08:08;5.85;;;4.10;;
27839;SDS011;15207;42.182;24.308;2023-07-31T09:10:35;5.50;;;3.90;;
27839;SDS011;15207;42.182;24.308;2023-07-31T09:13:01;7.00;;;4.05;;
27839;SDS011;15207;42.182;24.308;2023-07-31T09:15:28;7.50;;;4.45;;
27839;SDS011;15207;42.182;24.308;2023-07-31T09:18:01;7.00;;;4.10;;
27839;SDS011;15207;42.182;24.308;2023-07-31T09:22:53;6.10;;;4.00;;
27839;SDS011;15207;42.182;24.308;2023-07-31T09:25:24;6.50;;;4.15;;
27839;SDS011;15207;42.182;24.308;2023-07-31T09:27:56;5.60;;;3.90;;
27839;SDS011;15207;42.182;24.308;2023-07-31T09:30:23;5.40;;;4.10;;
27839;SDS011;15207;42.182;24.308;2023-07-31T09:32:50;5.20;;;3.50;;
27839;SDS011;15207;42.182;24.308;2023-07-31T09:35:28;4.65;;;3.50;;
27839;SDS011;15207;42.182;24.308;2023-07-31T09:37:57;3.90;;;3.20;;
27839;SDS011;15207;42.182;24.308;2023-07-31T09:40:30;9.45;;;3.15;;
27839;SDS011;15207;42.182;24.308;2023-07-31T09:42:58;4.60;;;3.30;;
27839;SDS011;15207;42.182;24.308;2023-07-31T09:45:25;4.70;;;3.40;;
27839;SDS011;15207;42.182;24.308;2023-07-31T09:47:52;3.80;;;3.10;;
27839;SDS011;15207;42.182;24.308;2023-07-31T09:50:19;4.70;;;3.05;;
27839;SDS011;15207;42.182;24.308;2023-07-31T09:55:12;7.20;;;2.85;;
27839;SDS011;15207;42.182;24.308;2023-07-31T09:57:41;3.05;;;2.55;;
27839;SDS011;15207;42.182;24.308;2023-07-31T10:00:10;3.25;;;2.50;;
27839;SDS011;15207;42.182;24.308;2023-07-31T10:02:40;3.40;;;2.40;;
27839;SDS011;15207;42.182;24.308;2023-07-31T10:05:07;4.17;;;2.40;;
27839;SDS011;15207;42.182;24.308;2023-07-31T10:10:04;3.50;;;2.80;;
27839;SDS011;15207;42.182;24.308;2023-07-31T10:12:33;4.20;;;2.60;;
27839;SDS011;15207;42.182;24.308;2023-07-31T10:15:00;3.75;;;2.55;;
27839;SDS011;15207;42.182;24.308;2023-07-31T10:17:26;2.90;;;2.20;;
27839;SDS011;15207;42.182;24.308;2023-07-31T10:19:54;3.70;;;1.90;;
27839;SDS011;15207;42.182;24.308;2023-07-31T10:22:21;3.50;;;2.03;;
27839;SDS011;15207;42.182;24.308;2023-07-31T10:24:47;3.20;;;1.90;;
27839;SDS011;15207;42.182;24.308;2023-07-31T10:27:14;2.30;;;2.10;;
27839;SDS011;15207;42.182;24.308;2023-07-31T10:29:40;3.25;;;2.20;;
27839;SDS011;15207;42.182;24.308;2023-07-31T10:32:09;2.80;;;2.10;;
27839;SDS011;15207;42.182;24.308;2023-07-31T10:34:37;2.30;;;1.80;;
27839;SDS011;15207;42.182;24.308;2023-07-31T10:39:56;4.60;;;2.10;;
27839;SDS011;15207;42.182;24.308;2023-07-31T10:44:59;2.60;;;2.20;;
27839;SDS011;15207;42.182;24.308;2023-07-31T10:49:53;3.60;;;2.10;;
27839;SDS011;15207;42.182;24.308;2023-07-31T10:58:19;3.80;;;2.20;;
27839;SDS011;15207;42.182;24.308;2023-07-31T11:00:49;4.20;;;2.40;;
27839;SDS011;15207;42.182;24.308;2023-07-31T11:03:18;3.00;;;2.30;;
27839;SDS011;15207;42.182;24.308;2023-07-31T11:05:48;3.00;;;2.00;;
27839;SDS011;15207;42.182;24.308;2023-07-31T11:10:46;2.55;;;2.13;;
27839;SDS011;15207;42.182;24.308;2023-07-31T11:13:13;2.80;;;2.30;;
27839;SDS011;15207;42.182;24.308;2023-07-31T11:15:39;4.40;;;2.40;;
27839;SDS011;15207;42.182;24.308;2023-07-31T11:18:05;5.75;;;2.20;;
27839;SDS011;15207;42.182;24.308;2023-07-31T11:20:34;2.20;;;1.90;;
27839;SDS011;15207;42.182;24.308;2023-07-31T11:23:02;2.60;;;2.20;;
27839;SDS011;15207;42.182;24.308;2023-07-31T11:25:32;2.25;;;2.05;;
27839;SDS011;15207;42.182;24.308;2023-07-31T11:28:05;3.70;;;2.10;;
27839;SDS011;15207;42.182;24.308;2023-07-31T11:30:32;3.30;;;2.10;;
27839;SDS011;15207;42.182;24.308;2023-07-31T11:32:59;3.00;;;2.20;;
27839;SDS011;15207;42.182;24.308;2023-07-31T11:35:29;2.75;;;1.95;;
27839;SDS011;15207;42.182;24.308;2023-07-31T11:40:21;4.05;;;2.30;;
27839;SDS011;15207;42.182;24.308;2023-07-31T11:42:47;4.70;;;2.00;;
27839;SDS011;15207;42.182;24.308;2023-07-31T11:45:13;5.10;;;2.45;;
27839;SDS011;15207;42.182;24.308;2023-07-31T11:47:39;5.10;;;2.30;;
27839;SDS011;15207;42.182;24.308;2023-07-31T11:50:10;3.45;;;2.15;;
27839;SDS011;15207;42.182;24.308;2023-07-31T11:52:44;3.90;;;2.50;;
27839;SDS011;15207;42.182;24.308;2023-07-31T11:55:11;4.50;;;2.30;;
27839;SDS011;15207;42.182;24.308;2023-07-31T11:57:39;2.50;;;2.10;;
27839;SDS011;15207;42.182;24.308;2023-07-31T12:02:36;2.00;;;1.60;;
27839;SDS011;15207;42.182;24.308;2023-07-31T12:05:05;3.95;;;1.75;;
27839;SDS011;15207;42.182;24.308;2023-07-31T12:07:51;2.60;;;1.70;;
27839;SDS011;15207;42.182;24.308;2023-07-31T12:10:25;2.50;;;1.80;;
27839;SDS011;15207;42.182;24.308;2023-07-31T12:12:59;6.80;;;1.70;;
27839;SDS011;15207;42.182;24.308;2023-07-31T12:15:35;2.10;;;1.30;;
27839;SDS011;15207;42.182;24.308;2023-07-31T12:18:23;2.40;;;1.50;;
27839;SDS011;15207;42.182;24.308;2023-07-31T12:21:00;3.60;;;1.60;;
27839;SDS011;15207;42.182;24.308;2023-07-31T12:28:30;2.95;;;1.50;;
27839;SDS011;15207;42.182;24.308;2023-07-31T12:31:06;1.80;;;1.40;;
27839;SDS011;15207;42.182;24.308;2023-07-31T12:33:35;2.70;;;2.00;;
27839;SDS011;15207;42.182;24.308;2023-07-31T12:36:09;2.60;;;1.80;;
27839;SDS011;15207;42.182;24.308;2023-07-31T12:38:37;3.55;;;2.00;;
27839;SDS011;15207;42.182;24.308;2023-07-31T12:41:03;3.20;;;1.90;;
27839;SDS011;15207;42.182;24.308;2023-07-31T12:43:29;3.05;;;1.70;;
27839;SDS011;15207;42.182;24.308;2023-07-31T12:45:55;2.50;;;1.60;;
27839;SDS011;15207;42.182;24.308;2023-07-31T12:50:48;1.90;;;1.20;;
27839;SDS011;15207;42.182;24.308;2023-07-31T12:53:15;3.20;;;1.50;;
27839;SDS011;15207;42.182;24.308;2023-07-31T12:55:41;2.30;;;1.50;;
27839;SDS011;15207;42.182;24.308;2023-07-31T12:58:07;1.35;;;1.20;;
27839;SDS011;15207;42.182;24.308;2023-07-31T13:05:28;2.10;;;1.40;;
27839;SDS011;15207;42.182;24.308;2023-07-31T13:07:54;1.40;;;1.30;;
27839;SDS011;15207;42.182;24.308;2023-07-31T13:10:20;1.45;;;1.15;;
27839;SDS011;15207;42.182;24.308;2023-07-31T13:12:47;1.70;;;1.20;;
27839;SDS011;15207;42.182;24.308;2023-07-31T13:15:12;1.40;;;1.20;;
27839;SDS011;15207;42.182;24.308;2023-07-31T13:17:39;1.35;;;1.25;;
27839;SDS011;15207;42.182;24.308;2023-07-31T13:22:34;1.30;;;1.00;;
27839;SDS011;15207;42.182;24.308;2023-07-31T13:25:00;1.60;;;1.15;;
27839;SDS011;15207;42.182;24.308;2023-07-31T13:27:26;1.50;;;1.40;;
27839;SDS011;15207;42.182;24.308;2023-07-31T13:29:51;1.20;;;1.00;;
27839;SDS011;15207;42.182;24.308;2023-07-31T13:32:18;2.60;;;1.20;;
27839;SDS011;15207;42.182;24.308;2023-07-31T13:34:47;1.20;;;0.90;;
27839;SDS011;15207;42.182;24.308;2023-07-31T13:37:14;1.00;;;0.80;;
27839;SDS011;15207;42.182;24.308;2023-07-31T13:39:40;2.15;;;1.10;;
27839;SDS011;15207;42.182;24.308;2023-07-31T13:42:07;1.90;;;1.10;;
27839;SDS011;15207;42.182;24.308;2023-07-31T13:44:35;1.20;;;0.95;;
27839;SDS011;15207;42.182;24.308;2023-07-31T13:47:01;1.30;;;1.00;;
27839;SDS011;15207;42.182;24.308;2023-07-31T13:49:27;1.70;;;0.90;;
27839;SDS011;15207;42.182;24.308;2023-07-31T13:51:53;1.10;;;1.00;;
27839;SDS011;15207;42.182;24.308;2023-07-31T13:54:20;1.20;;;0.90;;
27839;SDS011;15207;42.182;24.308;2023-07-31T13:56:47;3.15;;;1.05;;
27839;SDS011;15207;42.182;24.308;2023-07-31T13:59:12;1.10;;;1.00;;
27839;SDS011;15207;42.182;24.308;2023-07-31T14:01:40;1.80;;;1.00;;
27839;SDS011;15207;42.182;24.308;2023-07-31T14:04:05;1.60;;;1.10;;
27839;SDS011;15207;42.182;24.308;2023-07-31T14:06:31;3.20;;;1.25;;
27839;SDS011;15207;42.182;24.308;2023-07-31T14:08:57;2.20;;;1.40;;
27839;SDS011;15207;42.182;24.308;2023-07-31T14:11:23;1.95;;;1.20;;
27839;SDS011;15207;42.182;24.308;2023-07-31T14:13:50;3.30;;;1.00;;
27839;SDS011;15207;42.182;24.308;2023-07-31T14:16:16;1.20;;;1.00;;
27839;SDS011;15207;42.182;24.308;2023-07-31T14:18:42;1.10;;;1.00;;
27839;SDS011;15207;42.182;24.308;2023-07-31T14:21:10;2.10;;;1.10;;
27839;SDS011;15207;42.182;24.308;2023-07-31T14:23:36;2.90;;;1.00;;
27839;SDS011;15207;42.182;24.308;2023-07-31T14:26:02;1.40;;;1.10;;
27839;SDS011;15207;42.182;24.308;2023-07-31T14:28:28;1.20;;;1.00;;
27839;SDS011;15207;42.182;24.308;2023-07-31T14:33:20;1.75;;;1.30;;
27839;SDS011;15207;42.182;24.308;2023-07-31T14:35:46;1.25;;;1.00;;
27839;SDS011;15207;42.182;24.308;2023-07-31T14:38:11;0.90;;;0.80;;
27839;SDS011;15207;42.182;24.308;2023-07-31T14:43:04;1.20;;;0.90;;
27839;SDS011;15207;42.182;24.308;2023-07-31T14:45:30;1.60;;;1.10;;
27839;SDS011;15207;42.182;24.308;2023-07-31T14:47:56;2.00;;;1.30;;
27839;SDS011;15207;42.182;24.308;2023-07-31T14:50:22;2.85;;;1.50;;
27839;SDS011;15207;42.182;24.308;2023-07-31T14:52:48;1.85;;;1.10;;
27839;SDS011;15207;42.182;24.308;2023-07-31T14:55:14;1.70;;;1.10;;
27839;SDS011;15207;42.182;24.308;2023-07-31T14:57:40;2.70;;;1.60;;
27839;SDS011;15207;42.182;24.308;2023-07-31T15:00:06;2.10;;;1.50;;
27839;SDS011;15207;42.182;24.308;2023-07-31T15:02:34;1.50;;;1.30;;
27839;SDS011;15207;42.182;24.308;2023-07-31T15:07:26;3.10;;;1.30;;
27839;SDS011;15207;42.182;24.308;2023-07-31T15:09:51;1.30;;;0.95;;
27839;SDS011;15207;42.182;24.308;2023-07-31T15:14:43;2.80;;;1.10;;
27839;SDS011;15207;42.182;24.308;2023-07-31T15:17:08;1.80;;;1.00;;
27839;SDS011;15207;42.182;24.308;2023-07-31T15:19:34;1.35;;;1.10;;
27839;SDS011;15207;42.182;24.308;2023-07-31T15:22:02;1.50;;;1.20;;
27839;SDS011;15207;42.182;24.308;2023-07-31T15:24:31;3.47;;;1.20;;
27839;SDS011;15207;42.182;24.308;2023-07-31T15:29:22;1.95;;;1.15;;
27839;SDS011;15207;42.182;24.308;2023-07-31T15:31:48;1.10;;;0.90;;
27839;SDS011;15207;42.182;24.308;2023-07-31T15:41:37;1.37;;;1.07;;
27839;SDS011;15207;42.182;24.308;2023-07-31T15:44:04;1.10;;;1.00;;
27839;SDS011;15207;42.182;24.308;2023-07-31T15:46:30;1.20;;;1.00;;
27839;SDS011;15207;42.182;24.308;2023-07-31T15:48:55;1.30;;;1.10;;
27839;SDS011;15207;42.182;24.308;2023-07-31T15:51:22;1.30;;;1.10;;
27839;SDS011;15207;42.182;24.308;2023-07-31T15:53:48;2.50;;;1.40;;
27839;SDS011;15207;42.182;24.308;2023-07-31T15:56:13;2.35;;;1.40;;
27839;SDS011;15207;42.182;24.308;2023-07-31T15:58:39;1.10;;;1.00;;
27839;SDS011;15207;42.182;24.308;2023-07-31T16:01:05;1.70;;;1.15;;
27839;SDS011;15207;42.182;24.308;2023-07-31T16:03:31;5.00;;;1.35;;
27839;SDS011;15207;42.182;24.308;2023-07-31T16:05:57;2.20;;;1.50;;
27839;SDS011;15207;42.182;24.308;2023-07-31T16:08:22;3.45;;;1.65;;
27839;SDS011;15207;42.182;24.308;2023-07-31T16:10:48;2.00;;;1.40;;
27839;SDS011;15207;42.182;24.308;2023-07-31T16:13:14;2.20;;;1.40;;
27839;SDS011;15207;42.182;24.308;2023-07-31T16:15:40;1.60;;;1.40;;
27839;SDS011;15207;42.182;24.308;2023-07-31T16:18:05;2.73;;;1.60;;
27839;SDS011;15207;42.182;24.308;2023-07-31T16:20:32;2.75;;;1.60;;
27839;SDS011;15207;42.182;24.308;2023-07-31T16:22:58;2.80;;;1.40;;
27839;SDS011;15207;42.182;24.308;2023-07-31T16:25:24;3.80;;;1.20;;
27839;SDS011;15207;42.182;24.308;2023-07-31T16:27:49;2.10;;;1.30;;
27839;SDS011;15207;42.182;24.308;2023-07-31T16:30:15;1.80;;;1.20;;
27839;SDS011;15207;42.182;24.308;2023-07-31T16:32:41;4.50;;;2.90;;
27839;SDS011;15207;42.182;24.308;2023-07-31T16:35:07;4.20;;;3.20;;
27839;SDS011;15207;42.182;24.308;2023-07-31T16:37:33;5.60;;;3.85;;
27839;SDS011;15207;42.182;24.308;2023-07-31T16:39:59;6.20;;;3.80;;
27839;SDS011;15207;42.182;24.308;2023-07-31T16:42:25;4.60;;;3.25;;
27839;SDS011;15207;42.182;24.308;2023-07-31T16:44:50;4.50;;;3.30;;
27839;SDS011;15207;42.182;24.308;2023-07-31T16:47:17;4.30;;;3.50;;
27839;SDS011;15207;42.182;24.308;2023-07-31T16:49:42;4.80;;;3.30;;
27839;SDS011;15207;42.182;24.308;2023-07-31T16:52:08;5.85;;;3.40;;
27839;SDS011;15207;42.182;24.308;2023-07-31T16:54:34;5.80;;;3.25;;
27839;SDS011;15207;42.182;24.308;2023-07-31T17:04:18;4.15;;;2.95;;
27839;SDS011;15207;42.182;24.308;2023-07-31T17:06:44;4.00;;;3.30;;
27839;SDS011;15207;42.182;24.308;2023-07-31T17:09:09;4.90;;;3.00;;
27839;SDS011;15207;42.182;24.308;2023-07-31T17:14:01;6.95;;;3.10;;